sensor_id;sensor_type;location;lat;lon;timestamp;pressure;altitude;pressure_sealevel;temperature;humidity
44751;BME280;30477;48.224;11.470;2022-09-28T00:00:32;94655.94;;;8.79;78.96
44751;BME280;30477;48.224;11.470;2022-09-28T00:02:57;94642.06;;;8.80;79.01
44751;BME280;30477;48.224;11.470;2022-09-28T00:05:24;94641.75;;;8.83;79.04
44751;BME280;30477;48.224;11.470;2022-09-28T00:07:52;94646.75;;;8.84;78.90
44751;BME280;30477;48.224;11.470;2022-09-28T00:10:18;94649.00;;;8.79;79.14
44751;BME280;30477;48.224;11.470;2022-09-28T00:12:48;94646.13;;;8.82;79.30
44751;BME280;30477;48.224;11.470;2022-09-28T00:15:13;94634.81;;;8.83;79.46
44751;BME280;30477;48.224;11.470;2022-09-28T00:17:39;94624.19;;;8.86;79.57
44751;BME280;30477;48.224;11.470;2022-09-28T00:20:04;94618.19;;;8.86;79.35
44751;BME280;30477;48.224;11.470;2022-09-28T00:22:30;94613.03;;;8.86;79.64
44751;BME280;30477;48.224;11.470;2022-09-28T00:24:55;94609.66;;;8.85;79.65
44751;BME280;30477;48.224;11.470;2022-09-28T00:27:21;94601.59;;;8.88;79.79
44751;BME280;30477;48.224;11.470;2022-09-28T00:29:46;94599.03;;;8.88;79.87
44751;BME280;30477;48.224;11.470;2022-09-28T00:32:12;94587.88;;;8.88;79.64
44751;BME280;30477;48.224;11.470;2022-09-28T00:34:42;94586.44;;;8.85;79.74
44751;BME280;30477;48.224;11.470;2022-09-28T00:37:11;94587.72;;;8.89;80.01
44751;BME280;30477;48.224;11.470;2022-09-28T00:39:38;94580.97;;;8.88;79.70
44751;BME280;30477;48.224;11.470;2022-09-28T00:42:25;94563.19;;;8.93;79.88
44751;BME280;30477;48.224;11.470;2022-09-28T00:44:52;94565.13;;;8.91;79.65
44751;BME280;30477;48.224;11.470;2022-09-28T00:47:25;94563.47;;;8.99;80.05
44751;BME280;30477;48.224;11.470;2022-09-28T00:50:00;94555.06;;;9.05;79.72
44751;BME280;30477;48.224;11.470;2022-09-28T00:52:42;94557.03;;;9.03;79.79
44751;BME280;30477;48.224;11.470;2022-09-28T00:55:16;94557.72;;;8.97;79.82
44751;BME280;30477;48.224;11.470;2022-09-28T00:57:45;94551.56;;;8.98;79.65
44751;BME280;30477;48.224;11.470;2022-09-28T01:00:13;94547.38;;;8.97;79.59
44751;BME280;30477;48.224;11.470;2022-09-28T01:02:38;94547.03;;;9.00;79.84
44751;BME280;30477;48.224;11.470;2022-09-28T01:05:05;94535.44;;;8.96;79.25
44751;BME280;30477;48.224;11.470;2022-09-28T01:07:31;94532.88;;;8.96;79.43
44751;BME280;30477;48.224;11.470;2022-09-28T01:09:57;94527.06;;;8.93;79.29
44751;BME280;30477;48.224;11.470;2022-09-28T01:12:23;94526.44;;;8.91;79.15
44751;BME280;30477;48.224;11.470;2022-09-28T01:14:49;94529.00;;;8.91;79.13
44751;BME280;30477;48.224;11.470;2022-09-28T01:17:21;94521.59;;;8.97;78.81
44751;BME280;30477;48.224;11.470;2022-09-28T01:25:44;94511.09;;;8.90;78.41
44751;BME280;30477;48.224;11.470;2022-09-28T01:28:17;94507.56;;;8.91;78.23
44751;BME280;30477;48.224;11.470;2022-09-28T01:33:27;94493.88;;;8.90;77.71
44751;BME280;30477;48.224;11.470;2022-09-28T01:36:03;94495.31;;;8.93;77.40
44751;BME280;30477;48.224;11.470;2022-09-28T01:38:36;94486.13;;;8.90;77.43
44751;BME280;30477;48.224;11.470;2022-09-28T01:41:03;94468.88;;;8.91;77.36
44751;BME280;30477;48.224;11.470;2022-09-28T01:43:32;94465.13;;;8.93;77.31
44751;BME280;30477;48.224;11.470;2022-09-28T01:46:05;94469.50;;;8.93;77.28
44751;BME280;30477;48.224;11.470;2022-09-28T01:48:37;94455.97;;;8.91;77.03
44751;BME280;30477;48.224;11.470;2022-09-28T01:51:07;94457.13;;;8.88;76.99
44751;BME280;30477;48.224;11.470;2022-09-28T01:53:55;94445.66;;;8.91;76.82
44751;BME280;30477;48.224;11.470;2022-09-28T01:56:26;94444.53;;;8.85;76.85
44751;BME280;30477;48.224;11.470;2022-09-28T01:59:16;94435.50;;;8.89;76.90
44751;BME280;30477;48.224;11.470;2022-09-28T02:01:52;94434.53;;;8.90;76.68
44751;BME280;30477;48.224;11.470;2022-09-28T02:04:27;94422.53;;;8.98;76.56
44751;BME280;30477;48.224;11.470;2022-09-28T02:07:02;94414.00;;;8.97;76.72
44751;BME280;30477;48.224;11.470;2022-09-28T02:09:45;94410.28;;;9.00;76.82
44751;BME280;30477;48.224;11.470;2022-09-28T02:12:28;94402.53;;;9.00;76.33
44751;BME280;30477;48.224;11.470;2022-09-28T02:15:09;94396.91;;;8.96;76.34
44751;BME280;30477;48.224;11.470;2022-09-28T02:17:37;94397.88;;;8.95;76.35
44751;BME280;30477;48.224;11.470;2022-09-28T02:20:02;94390.47;;;8.92;76.41
44751;BME280;30477;48.224;11.470;2022-09-28T02:22:45;94380.78;;;8.94;76.30
44751;BME280;30477;48.224;11.470;2022-09-28T02:27:59;94360.63;;;8.98;76.24
44751;BME280;30477;48.224;11.470;2022-09-28T02:30:25;94356.25;;;8.98;75.95
44751;BME280;30477;48.224;11.470;2022-09-28T02:32:53;94357.69;;;9.01;75.78
44751;BME280;30477;48.224;11.470;2022-09-28T02:35:21;94359.63;;;8.99;75.61
44751;BME280;30477;48.224;11.470;2022-09-28T02:37:47;94347.56;;;8.99;75.69
44751;BME280;30477;48.224;11.470;2022-09-28T02:40:20;94340.97;;;8.97;75.07
44751;BME280;30477;48.224;11.470;2022-09-28T02:45:46;94334.88;;;8.89;75.16
44751;BME280;30477;48.224;11.470;2022-09-28T02:51:04;94329.72;;;8.89;75.37
44751;BME280;30477;48.224;11.470;2022-09-28T03:04:38;94311.69;;;8.81;74.89
44751;BME280;30477;48.224;11.470;2022-09-28T03:07:12;94308.97;;;8.83;74.88
44751;BME280;30477;48.224;11.470;2022-09-28T03:09:54;94305.59;;;8.82;74.88
44751;BME280;30477;48.224;11.470;2022-09-28T03:12:23;94309.75;;;8.83;74.99
44751;BME280;30477;48.224;11.470;2022-09-28T03:17:34;94297.84;;;8.82;75.02
44751;BME280;30477;48.224;11.470;2022-09-28T03:19:59;94311.69;;;8.81;74.95
44751;BME280;30477;48.224;11.470;2022-09-28T03:22:25;94308.50;;;8.79;75.05
44751;BME280;30477;48.224;11.470;2022-09-28T03:24:50;94308.84;;;8.76;75.03
44751;BME280;30477;48.224;11.470;2022-09-28T03:27:15;94307.88;;;8.77;75.19
44751;BME280;30477;48.224;11.470;2022-09-28T03:29:41;94301.91;;;8.77;75.16
44751;BME280;30477;48.224;11.470;2022-09-28T03:32:06;94290.16;;;8.74;75.07
44751;BME280;30477;48.224;11.470;2022-09-28T03:34:31;94289.97;;;8.76;75.09
44751;BME280;30477;48.224;11.470;2022-09-28T03:36:56;94292.13;;;8.72;74.88
44751;BME280;30477;48.224;11.470;2022-09-28T03:39:22;94283.38;;;8.73;75.13
44751;BME280;30477;48.224;11.470;2022-09-28T03:41:47;94282.59;;;8.72;75.09
44751;BME280;30477;48.224;11.470;2022-09-28T03:44:12;94281.44;;;8.75;75.03
44751;BME280;30477;48.224;11.470;2022-09-28T03:46:38;94284.66;;;8.77;74.97
44751;BME280;30477;48.224;11.470;2022-09-28T03:49:03;94283.97;;;8.83;74.84
44751;BME280;30477;48.224;11.470;2022-09-28T03:51:29;94273.63;;;8.83;74.45
44751;BME280;30477;48.224;11.470;2022-09-28T03:53:54;94275.06;;;8.86;74.71
44751;BME280;30477;48.224;11.470;2022-09-28T03:56:19;94275.69;;;8.88;74.55
44751;BME280;30477;48.224;11.470;2022-09-28T03:58:45;94278.09;;;8.89;74.47
44751;BME280;30477;48.224;11.470;2022-09-28T04:01:11;94271.00;;;8.91;74.25
44751;BME280;30477;48.224;11.470;2022-09-28T04:03:37;94269.03;;;8.93;74.21
44751;BME280;30477;48.224;11.470;2022-09-28T04:06:03;94275.19;;;8.92;74.26
44751;BME280;30477;48.224;11.470;2022-09-28T04:08:28;94272.63;;;8.92;74.27
44751;BME280;30477;48.224;11.470;2022-09-28T04:10:56;94268.72;;;8.97;74.05
44751;BME280;30477;48.224;11.470;2022-09-28T04:13:21;94271.00;;;8.91;73.96
44751;BME280;30477;48.224;11.470;2022-09-28T04:15:54;94265.03;;;8.91;74.14
44751;BME280;30477;48.224;11.470;2022-09-28T04:18:20;94261.66;;;8.90;73.82
44751;BME280;30477;48.224;11.470;2022-09-28T04:20:46;94257.13;;;8.92;73.72
44751;BME280;30477;48.224;11.470;2022-09-28T04:23:13;94257.13;;;8.92;73.85
44751;BME280;30477;48.224;11.470;2022-09-28T04:25:39;94253.56;;;8.93;73.61
44751;BME280;30477;48.224;11.470;2022-09-28T04:28:04;94250.66;;;8.97;73.83
44751;BME280;30477;48.224;11.470;2022-09-28T04:30:49;94258.56;;;8.95;73.42
44751;BME280;30477;48.224;11.470;2022-09-28T04:33:14;94253.72;;;8.92;73.47
44751;BME280;30477;48.224;11.470;2022-09-28T04:35:40;94254.56;;;8.92;73.67
44751;BME280;30477;48.224;11.470;2022-09-28T04:38:05;94253.56;;;8.93;73.78
44751;BME280;30477;48.224;11.470;2022-09-28T04:40:30;94253.94;;;8.90;73.60
44751;BME280;30477;48.224;11.470;2022-09-28T04:42:56;94254.38;;;8.94;73.71
44751;BME280;30477;48.224;11.470;2022-09-28T04:45:22;94253.72;;;8.92;73.60
44751;BME280;30477;48.224;11.470;2022-09-28T04:47:50;94252.16;;;8.91;73.95
44751;BME280;30477;48.224;11.470;2022-09-28T04:50:15;94247.25;;;8.96;73.98
44751;BME280;30477;48.224;11.470;2022-09-28T04:52:41;94256.16;;;8.93;73.94
44751;BME280;30477;48.224;11.470;2022-09-28T04:55:08;94264.50;;;8.96;74.00
44751;BME280;30477;48.224;11.470;2022-09-28T04:57:35;94261.94;;;8.96;74.06
44751;BME280;30477;48.224;11.470;2022-09-28T05:00:00;94264.69;;;8.94;74.05
44751;BME280;30477;48.224;11.470;2022-09-28T05:02:26;94271.91;;;8.99;74.06
44751;BME280;30477;48.224;11.470;2022-09-28T05:04:51;94264.78;;;9.01;74.09
44751;BME280;30477;48.224;11.470;2022-09-28T05:07:19;94252.06;;;8.99;74.09
44751;BME280;30477;48.224;11.470;2022-09-28T05:09:44;94248.50;;;9.00;73.95
44751;BME280;30477;48.224;11.470;2022-09-28T05:12:10;94249.66;;;8.98;74.00
44751;BME280;30477;48.224;11.470;2022-09-28T05:14:35;94255.97;;;8.95;73.93
44751;BME280;30477;48.224;11.470;2022-09-28T05:17:00;94242.44;;;8.93;73.85
44751;BME280;30477;48.224;11.470;2022-09-28T05:19:26;94248.06;;;8.97;74.17
44751;BME280;30477;48.224;11.470;2022-09-28T05:21:52;94243.50;;;8.99;74.22
44751;BME280;30477;48.224;11.470;2022-09-28T05:24:17;94248.06;;;8.97;74.39
44751;BME280;30477;48.224;11.470;2022-09-28T05:26:43;94238.25;;;8.92;74.49
44751;BME280;30477;48.224;11.470;2022-09-28T05:29:08;94230.19;;;8.95;74.73
44751;BME280;30477;48.224;11.470;2022-09-28T05:31:33;94218.25;;;8.94;74.42
44751;BME280;30477;48.224;11.470;2022-09-28T05:33:58;94210.88;;;8.91;74.71
44751;BME280;30477;48.224;11.470;2022-09-28T05:36:24;94197.69;;;9.01;75.09
44751;BME280;30477;48.224;11.470;2022-09-28T05:38:52;94197.00;;;9.07;75.06
44751;BME280;30477;48.224;11.470;2022-09-28T05:41:17;94204.03;;;9.13;74.82
44751;BME280;30477;48.224;11.470;2022-09-28T05:43:42;94199.31;;;9.17;74.72
44751;BME280;30477;48.224;11.470;2022-09-28T05:46:09;94190.63;;;9.18;74.74
44751;BME280;30477;48.224;11.470;2022-09-28T05:48:35;94191.84;;;9.22;75.13
44751;BME280;30477;48.224;11.470;2022-09-28T05:51:00;94182.03;;;9.17;74.83
44751;BME280;30477;48.224;11.470;2022-09-28T05:53:25;94190.16;;;9.14;74.74
44751;BME280;30477;48.224;11.470;2022-09-28T05:55:51;94194.53;;;9.13;74.89
44751;BME280;30477;48.224;11.470;2022-09-28T05:58:16;94182.41;;;9.14;74.82
44751;BME280;30477;48.224;11.470;2022-09-28T06:00:42;94169.75;;;9.19;75.01
44751;BME280;30477;48.224;11.470;2022-09-28T06:03:10;94166.22;;;9.20;74.89
44751;BME280;30477;48.224;11.470;2022-09-28T06:05:37;94159.09;;;9.22;74.97
44751;BME280;30477;48.224;11.470;2022-09-28T06:08:07;94161.41;;;9.17;74.88
44751;BME280;30477;48.224;11.470;2022-09-28T06:10:34;94152.88;;;9.17;74.81
44751;BME280;30477;48.224;11.470;2022-09-28T06:13:00;94165.16;;;9.14;74.81
44751;BME280;30477;48.224;11.470;2022-09-28T06:15:27;94172.44;;;9.11;74.59
44751;BME280;30477;48.224;11.470;2022-09-28T06:18:03;94173.06;;;9.13;74.97
44751;BME280;30477;48.224;11.470;2022-09-28T06:20:32;94180.16;;;9.11;75.12
44751;BME280;30477;48.224;11.470;2022-09-28T06:22:58;94189.16;;;9.15;75.04
44751;BME280;30477;48.224;11.470;2022-09-28T06:25:24;94185.97;;;9.13;75.36
44751;BME280;30477;48.224;11.470;2022-09-28T06:28:03;94175.63;;;9.13;75.41
44751;BME280;30477;48.224;11.470;2022-09-28T06:30:30;94173.50;;;9.17;75.28
44751;BME280;30477;48.224;11.470;2022-09-28T06:32:57;94165.78;;;9.17;75.36
44751;BME280;30477;48.224;11.470;2022-09-28T06:35:24;94171.72;;;9.17;75.26
44751;BME280;30477;48.224;11.470;2022-09-28T06:37:51;94170.94;;;9.17;75.36
44751;BME280;30477;48.224;11.470;2022-09-28T06:40:17;94172.09;;;9.14;75.22
44751;BME280;30477;48.224;11.470;2022-09-28T06:42:43;94170.47;;;9.13;75.66
44751;BME280;30477;48.224;11.470;2022-09-28T06:45:10;94172.09;;;9.14;75.73
44751;BME280;30477;48.224;11.470;2022-09-28T06:47:36;94170.75;;;9.18;75.74
44751;BME280;30477;48.224;11.470;2022-09-28T06:50:03;94165.78;;;9.17;75.61
44751;BME280;30477;48.224;11.470;2022-09-28T06:52:36;94166.03;;;9.22;75.46
44751;BME280;30477;48.224;11.470;2022-09-28T06:55:02;94171.19;;;9.22;75.43
44751;BME280;30477;48.224;11.470;2022-09-28T06:57:27;94172.97;;;9.21;75.53
44751;BME280;30477;48.224;11.470;2022-09-28T06:59:52;94171.72;;;9.17;75.56
44751;BME280;30477;48.224;11.470;2022-09-28T07:02:17;94165.06;;;9.23;75.51
44751;BME280;30477;48.224;11.470;2022-09-28T07:04:44;94174.38;;;9.24;75.20
44751;BME280;30477;48.224;11.470;2022-09-28T07:07:10;94187.91;;;9.26;75.27
44751;BME280;30477;48.224;11.470;2022-09-28T07:09:36;94182.59;;;9.27;75.24
44751;BME280;30477;48.224;11.470;2022-09-28T07:12:02;94184.22;;;9.28;75.23
44751;BME280;30477;48.224;11.470;2022-09-28T07:14:29;94177.41;;;9.27;75.33
44751;BME280;30477;48.224;11.470;2022-09-28T07:16:56;94194.16;;;9.31;75.19
44751;BME280;30477;48.224;11.470;2022-09-28T07:19:22;94196.56;;;9.33;75.24
44751;BME280;30477;48.224;11.470;2022-09-28T07:21:47;94189.44;;;9.35;75.28
44751;BME280;30477;48.224;11.470;2022-09-28T07:24:12;94185.69;;;9.38;75.59
44751;BME280;30477;48.224;11.470;2022-09-28T07:26:38;94189.53;;;9.42;75.76
44751;BME280;30477;48.224;11.470;2022-09-28T07:29:03;94198.25;;;9.41;75.61
44751;BME280;30477;48.224;11.470;2022-09-28T07:31:29;94197.28;;;9.42;75.64
44751;BME280;30477;48.224;11.470;2022-09-28T07:33:56;94197.28;;;9.42;75.66
44751;BME280;30477;48.224;11.470;2022-09-28T07:36:22;94195.66;;;9.41;75.80
44751;BME280;30477;48.224;11.470;2022-09-28T07:38:48;94200.66;;;9.42;75.94
44751;BME280;30477;48.224;11.470;2022-09-28T07:41:13;94200.47;;;9.44;75.84
44751;BME280;30477;48.224;11.470;2022-09-28T07:43:41;94201.81;;;9.40;76.02
44751;BME280;30477;48.224;11.470;2022-09-28T07:46:08;94210.19;;;9.42;76.29
44751;BME280;30477;48.224;11.470;2022-09-28T07:48:38;94209.47;;;9.48;76.35
44751;BME280;30477;48.224;11.470;2022-09-28T07:51:04;94216.22;;;9.49;76.28
44751;BME280;30477;48.224;11.470;2022-09-28T07:53:30;94213.47;;;9.50;76.39
44751;BME280;30477;48.224;11.470;2022-09-28T07:56:01;94219.44;;;9.51;76.17
44751;BME280;30477;48.224;11.470;2022-09-28T07:58:38;94217.47;;;9.53;76.29
44751;BME280;30477;48.224;11.470;2022-09-28T08:01:05;94217.94;;;9.57;76.34
44751;BME280;30477;48.224;11.470;2022-09-28T08:03:32;94223.25;;;9.55;76.54
44751;BME280;30477;48.224;11.470;2022-09-28T08:05:59;94219.72;;;9.56;76.50
44751;BME280;30477;48.224;11.470;2022-09-28T08:08:25;94221.94;;;9.59;76.43
44751;BME280;30477;48.224;11.470;2022-09-28T08:10:51;94227.09;;;9.59;76.42
44751;BME280;30477;48.224;11.470;2022-09-28T08:13:17;94232.88;;;9.61;76.60
44751;BME280;30477;48.224;11.470;2022-09-28T08:15:43;94233.16;;;9.66;76.63
44751;BME280;30477;48.224;11.470;2022-09-28T08:18:09;94241.09;;;9.65;76.37
44751;BME280;30477;48.224;11.470;2022-09-28T08:20:34;94236.72;;;9.65;76.51
44751;BME280;30477;48.224;11.470;2022-09-28T08:23:18;94231.19;;;9.68;76.66
44751;BME280;30477;48.224;11.470;2022-09-28T08:25:48;94227.00;;;9.67;76.62
44751;BME280;30477;48.224;11.470;2022-09-28T08:28:15;94248.91;;;9.71;76.77
44751;BME280;30477;48.224;11.470;2022-09-28T08:30:44;94243.84;;;9.63;76.82
44751;BME280;30477;48.224;11.470;2022-09-28T08:33:11;94241.34;;;9.70;77.03
44751;BME280;30477;48.224;11.470;2022-09-28T08:35:36;94244.28;;;9.67;76.71
44751;BME280;30477;48.224;11.470;2022-09-28T08:38:03;94234.03;;;9.73;76.98
44751;BME280;30477;48.224;11.470;2022-09-28T08:40:33;94240.00;;;9.74;77.02
44751;BME280;30477;48.224;11.470;2022-09-28T08:43:02;94244.44;;;9.80;77.00
44751;BME280;30477;48.224;11.470;2022-09-28T08:45:31;94249.63;;;9.80;76.93
44751;BME280;30477;48.224;11.470;2022-09-28T08:48:07;94257.56;;;9.79;77.19
44751;BME280;30477;48.224;11.470;2022-09-28T08:51:17;94310.66;;;9.81;77.46
44751;BME280;30477;48.224;11.470;2022-09-28T08:53:56;94337.03;;;9.77;77.36
44751;BME280;30477;48.224;11.470;2022-09-28T08:56:28;94353.63;;;9.44;77.29
44751;BME280;30477;48.224;11.470;2022-09-28T08:59:00;94355.97;;;9.16;77.08
44751;BME280;30477;48.224;11.470;2022-09-28T09:01:38;94367.50;;;9.05;77.60
44751;BME280;30477;48.224;11.470;2022-09-28T09:04:06;94367.88;;;8.94;77.80
44751;BME280;30477;48.224;11.470;2022-09-28T09:06:48;94363.19;;;8.98;77.98
44751;BME280;30477;48.224;11.470;2022-09-28T09:17:41;94376.00;;;9.14;78.75
44751;BME280;30477;48.224;11.470;2022-09-28T09:23:31;94363.97;;;9.21;78.95
44751;BME280;30477;48.224;11.470;2022-09-28T09:26:11;94358.13;;;9.27;79.04
44751;BME280;30477;48.224;11.470;2022-09-28T09:31:25;94352.84;;;9.44;78.94
44751;BME280;30477;48.224;11.470;2022-09-28T09:37:02;94354.09;;;9.48;79.60
44751;BME280;30477;48.224;11.470;2022-09-28T09:48:13;94383.34;;;9.40;79.23
44751;BME280;30477;48.224;11.470;2022-09-28T09:50:51;94384.31;;;9.24;79.48
44751;BME280;30477;48.224;11.470;2022-09-28T09:53:36;94391.63;;;9.35;79.53
44751;BME280;30477;48.224;11.470;2022-09-28T09:56:38;94393.53;;;9.42;79.64
44751;BME280;30477;48.224;11.470;2022-09-28T09:59:09;94382.28;;;9.34;79.23
44751;BME280;30477;48.224;11.470;2022-09-28T10:01:37;94384.25;;;9.32;79.18
44751;BME280;30477;48.224;11.470;2022-09-28T10:04:13;94385.25;;;9.46;79.34
44751;BME280;30477;48.224;11.470;2022-09-28T10:06:40;94385.34;;;9.53;79.45
44751;BME280;30477;48.224;11.470;2022-09-28T10:09:15;94385.66;;;9.58;79.04
44751;BME280;30477;48.224;11.470;2022-09-28T10:11:45;94390.34;;;9.54;78.63
44751;BME280;30477;48.224;11.470;2022-09-28T10:14:19;94390.34;;;9.54;78.76
44751;BME280;30477;48.224;11.470;2022-09-28T10:16:47;94393.47;;;9.50;78.76
44751;BME280;30477;48.224;11.470;2022-09-28T10:19:14;94397.63;;;9.51;79.00
44751;BME280;30477;48.224;11.470;2022-09-28T10:21:42;94395.75;;;9.45;78.84
44751;BME280;30477;48.224;11.470;2022-09-28T10:24:42;94398.16;;;9.46;79.08
44751;BME280;30477;48.224;11.470;2022-09-28T10:27:10;94396.38;;;9.47;79.04
44751;BME280;30477;48.224;11.470;2022-09-28T10:29:48;94398.00;;;9.48;78.83
44751;BME280;30477;48.224;11.470;2022-09-28T10:32:23;94403.94;;;9.48;79.11
44751;BME280;30477;48.224;11.470;2022-09-28T10:34:50;94403.88;;;9.57;78.97
44751;BME280;30477;48.224;11.470;2022-09-28T10:37:16;94396.88;;;9.65;78.63
44751;BME280;30477;48.224;11.470;2022-09-28T10:39:52;94412.38;;;9.65;78.51
44751;BME280;30477;48.224;11.470;2022-09-28T10:44:52;94413.16;;;9.66;78.51
44751;BME280;30477;48.224;11.470;2022-09-28T10:47:21;94414.94;;;9.65;78.80
44751;BME280;30477;48.224;11.470;2022-09-28T10:49:49;94429.50;;;9.66;78.48
44751;BME280;30477;48.224;11.470;2022-09-28T10:52:32;94422.38;;;9.68;77.99
44751;BME280;30477;48.224;11.470;2022-09-28T10:54:58;94413.88;;;9.60;78.01
44751;BME280;30477;48.224;11.470;2022-09-28T10:57:27;94423.06;;;9.62;78.08
44751;BME280;30477;48.224;11.470;2022-09-28T10:59:53;94425.91;;;9.67;78.19
44751;BME280;30477;48.224;11.470;2022-09-28T11:04:59;94407.41;;;9.79;78.07
44751;BME280;30477;48.224;11.470;2022-09-28T11:07:27;94404.53;;;9.73;78.14
44751;BME280;30477;48.224;11.470;2022-09-28T11:09:55;94411.59;;;9.80;78.02
44751;BME280;30477;48.224;11.470;2022-09-28T11:12:26;94411.53;;;9.88;78.31
44751;BME280;30477;48.224;11.470;2022-09-28T11:15:00;94426.66;;;9.91;78.09
44751;BME280;30477;48.224;11.470;2022-09-28T11:19:56;94430.94;;;9.84;78.06
44751;BME280;30477;48.224;11.470;2022-09-28T11:27:43;94427.38;;;9.85;77.83
44751;BME280;30477;48.224;11.470;2022-09-28T11:30:24;94433.09;;;9.95;77.77
44751;BME280;30477;48.224;11.470;2022-09-28T11:32:53;94434.00;;;10.02;77.84
44751;BME280;30477;48.224;11.470;2022-09-28T11:35:27;94439.50;;;9.99;77.97
44751;BME280;30477;48.224;11.470;2022-09-28T11:40:57;94426.16;;;10.10;77.62
44751;BME280;30477;48.224;11.470;2022-09-28T11:43:58;94417.78;;;10.08;77.80
44751;BME280;30477;48.224;11.470;2022-09-28T11:52:27;94427.84;;;10.18;77.95
44751;BME280;30477;48.224;11.470;2022-09-28T11:55:12;94448.38;;;10.20;78.04
44751;BME280;30477;48.224;11.470;2022-09-28T11:57:41;94456.50;;;10.16;77.75
44751;BME280;30477;48.224;11.470;2022-09-28T12:00:19;94451.31;;;10.16;77.88
44751;BME280;30477;48.224;11.470;2022-09-28T12:02:54;94442.09;;;10.14;77.91
44751;BME280;30477;48.224;11.470;2022-09-28T12:05:26;94439.97;;;10.18;78.14
44751;BME280;30477;48.224;11.470;2022-09-28T12:08:17;94439.34;;;10.15;78.32
44751;BME280;30477;48.224;11.470;2022-09-28T12:10:58;94438.66;;;10.22;78.14
44751;BME280;30477;48.224;11.470;2022-09-28T12:13:27;94448.66;;;10.25;77.97
44751;BME280;30477;48.224;11.470;2022-09-28T12:16:00;94435.91;;;10.23;78.02
44751;BME280;30477;48.224;11.470;2022-09-28T12:24:04;94441.59;;;10.19;77.93
44751;BME280;30477;48.224;11.470;2022-09-28T12:26:51;94441.84;;;10.24;78.21
44751;BME280;30477;48.224;11.470;2022-09-28T12:29:26;94452.91;;;10.18;77.86
44751;BME280;30477;48.224;11.470;2022-09-28T12:34:41;94454.31;;;10.05;78.01
44751;BME280;30477;48.224;11.470;2022-09-28T12:37:18;94454.06;;;10.15;78.00
44751;BME280;30477;48.224;11.470;2022-09-28T12:51:19;94453.44;;;9.98;78.36
44751;BME280;30477;48.224;11.470;2022-09-28T12:54:00;94458.72;;;9.82;77.83
44751;BME280;30477;48.224;11.470;2022-09-28T12:59:18;94456.28;;;9.65;78.38
44751;BME280;30477;48.224;11.470;2022-09-28T13:02:08;94453.69;;;9.65;77.98
44751;BME280;30477;48.224;11.470;2022-09-28T13:11:07;94457.22;;;9.72;78.18
44751;BME280;30477;48.224;11.470;2022-09-28T13:22:11;94454.97;;;9.69;78.13
44751;BME280;30477;48.224;11.470;2022-09-28T13:24:21;94453.94;;;9.79;77.93
44751;BME280;30477;48.224;11.470;2022-09-28T13:26:50;94446.06;;;9.87;78.02
44751;BME280;30477;48.224;11.470;2022-09-28T13:29:19;94440.56;;;9.90;78.03
44751;BME280;30477;48.224;11.470;2022-09-28T13:31:49;94439.19;;;10.02;78.17
44751;BME280;30477;48.224;11.470;2022-09-28T13:34:19;94435.97;;;10.00;77.81
44751;BME280;30477;48.224;11.470;2022-09-28T13:39:37;94437.47;;;9.94;77.37
44751;BME280;30477;48.224;11.470;2022-09-28T13:58:48;94458.28;;;9.78;75.97
44751;BME280;30477;48.224;11.470;2022-09-28T14:01:19;94451.53;;;9.92;76.67
44751;BME280;30477;48.224;11.470;2022-09-28T14:04:17;94455.56;;;9.94;76.65
44751;BME280;30477;48.224;11.470;2022-09-28T14:06:53;94453.44;;;9.98;76.43
44751;BME280;30477;48.224;11.470;2022-09-28T14:09:39;94462.97;;;9.98;76.17
44751;BME280;30477;48.224;11.470;2022-09-28T14:14:58;94456.97;;;9.97;76.53
44751;BME280;30477;48.224;11.470;2022-09-28T14:19:53;94452.88;;;9.88;76.14
44751;BME280;30477;48.224;11.470;2022-09-28T14:22:26;94453.56;;;9.82;76.02
44751;BME280;30477;48.224;11.470;2022-09-28T14:27:59;94450.56;;;9.93;76.48
44751;BME280;30477;48.224;11.470;2022-09-28T14:30:44;94444.03;;;9.82;75.86
44751;BME280;30477;48.224;11.470;2022-09-28T14:38:22;94440.75;;;9.88;76.50
44751;BME280;30477;48.224;11.470;2022-09-28T14:41:25;94448.50;;;9.88;76.04
44751;BME280;30477;48.224;11.470;2022-09-28T14:44:00;94450.81;;;9.83;75.85
44751;BME280;30477;48.224;11.470;2022-09-28T14:46:40;94446.81;;;9.81;75.82
44751;BME280;30477;48.224;11.470;2022-09-28T14:54:20;94456.41;;;9.87;75.83
44751;BME280;30477;48.224;11.470;2022-09-28T14:59:19;94453.66;;;9.88;76.05
44751;BME280;30477;48.224;11.470;2022-09-28T15:01:50;94452.97;;;9.94;75.82
44751;BME280;30477;48.224;11.470;2022-09-28T15:04:18;94453.97;;;9.93;75.75
44751;BME280;30477;48.224;11.470;2022-09-28T15:06:46;94449.66;;;9.86;75.43
44751;BME280;30477;48.224;11.470;2022-09-28T15:09:37;94452.31;;;9.78;75.47
44751;BME280;30477;48.224;11.470;2022-09-28T15:12:14;94448.63;;;9.72;75.74
44751;BME280;30477;48.224;11.470;2022-09-28T15:14:45;94450.41;;;9.71;75.56
44751;BME280;30477;48.224;11.470;2022-09-28T15:17:15;94445.56;;;9.77;75.68
44751;BME280;30477;48.224;11.470;2022-09-28T15:19:50;94450.03;;;9.83;75.62
44751;BME280;30477;48.224;11.470;2022-09-28T15:22:19;94447.78;;;9.80;75.93
44751;BME280;30477;48.224;11.470;2022-09-28T15:24:56;94450.81;;;9.83;75.53
44751;BME280;30477;48.224;11.470;2022-09-28T15:27:22;94455.97;;;9.83;75.71
44751;BME280;30477;48.224;11.470;2022-09-28T15:30:21;94454.38;;;9.82;75.86
44751;BME280;30477;48.224;11.470;2022-09-28T15:32:42;94463.63;;;9.77;75.64
44751;BME280;30477;48.224;11.470;2022-09-28T15:35:11;94467.47;;;9.81;75.74
44751;BME280;30477;48.224;11.470;2022-09-28T15:37:38;94469.44;;;9.79;75.81
44751;BME280;30477;48.224;11.470;2022-09-28T15:40:11;94472.41;;;9.67;75.45
44751;BME280;30477;48.224;11.470;2022-09-28T15:42:38;94471.16;;;9.63;75.71
44751;BME280;30477;48.224;11.470;2022-09-28T15:45:04;94476.94;;;9.65;75.73
44751;BME280;30477;48.224;11.470;2022-09-28T15:47:47;94481.47;;;9.63;75.75
44751;BME280;30477;48.224;11.470;2022-09-28T15:50:32;94484.38;;;9.68;76.15
44751;BME280;30477;48.224;11.470;2022-09-28T15:53:04;94479.88;;;9.62;75.77